createdAt,value
2019-03-05T00:03:08.723Z,99682.80
2019-03-05T00:09:22.846Z,99688.91
2019-03-05T00:15:28.633Z,99693.75
2019-03-05T00:21:35.384Z,99689.88
2019-03-05T00:28:03.379Z,99684.23
2019-03-05T00:35:01.158Z,99685.98
2019-03-05T00:41:25.601Z,99692.16
2019-03-05T00:48:11.449Z,99682.97
2019-03-05T00:54:49.849Z,99693.16
2019-03-05T01:01:50.916Z,99696.27
2019-03-05T01:07:57.240Z,99698.98
2019-03-05T01:14:03.110Z,99678.43
2019-03-05T01:20:09.672Z,99707.25
2019-03-05T01:26:15.689Z,99709.43
2019-03-05T01:32:42.862Z,99707.62
2019-03-05T01:39:04.475Z,99712.83
2019-03-05T01:45:12.568Z,99719.82
2019-03-05T01:51:18.351Z,99724.20
2019-03-05T01:57:24.202Z,99738.22
2019-03-05T02:03:29.966Z,99742.56
2019-03-05T02:09:35.776Z,99740.84
2019-03-05T02:15:41.700Z,99739.98
2019-03-05T02:21:47.594Z,99742.64
2019-03-05T02:28:38.764Z,99744.48
2019-03-05T02:35:55.314Z,99749.73
2019-03-05T02:42:49.991Z,99755.95
2019-03-05T02:50:03.188Z,99752.95
2019-03-05T02:57:10.132Z,99765.60
2019-03-05T03:03:34.808Z,99761.28
2019-03-05T03:10:18.855Z,99765.31
2019-03-05T03:16:24.773Z,99771.38
2019-03-05T03:22:30.518Z,99755.70
2019-03-05T03:28:36.271Z,99759.63
2019-03-05T03:34:42.390Z,99758.40
2019-03-05T03:40:48.302Z,99773.69
2019-03-05T03:46:54.323Z,99776.29
2019-03-05T03:53:00.105Z,99781.47
2019-03-05T03:59:07.934Z,99792.39
2019-03-05T04:05:13.773Z,99794.14
2019-03-05T04:11:19.690Z,99796.77
2019-03-05T04:17:25.626Z,99790.66
2019-03-05T04:23:31.844Z,99794.59
2019-03-05T04:29:37.628Z,99793.25
2019-03-05T04:35:43.610Z,99790.22
2019-03-05T04:41:50.774Z,99791.94
2019-03-05T04:47:56.684Z,99792.39
2019-03-05T04:54:02.817Z,99796.77
2019-03-05T05:00:14.096Z,99797.23
2019-03-05T05:06:20.383Z,99792.83
2019-03-05T05:12:26.645Z,99790.22
2019-03-05T05:18:32.627Z,99794.56
2019-03-05T05:24:38.372Z,99792.36
2019-03-05T05:30:44.412Z,99798.47
2019-03-05T05:36:50.388Z,99788.86
2019-03-05T05:42:56.280Z,99797.13
2019-03-05T05:49:02.005Z,99791.86
2019-03-05T05:55:08.414Z,99796.20
2019-03-05T06:01:14.164Z,99794.03
2019-03-05T06:07:20.007Z,99804.09
2019-03-05T06:13:25.763Z,99794.89
2019-03-05T06:19:31.537Z,99800.61
2019-03-05T06:25:37.540Z,99808.05
2019-03-05T06:31:43.720Z,99811.53
2019-03-05T06:37:49.944Z,99818.11
2019-03-05T06:43:55.787Z,99822.03
2019-03-05T06:50:02.100Z,99827.33
2019-03-05T06:56:08.046Z,99832.14
2019-03-05T07:02:13.753Z,99830.85
2019-03-05T07:08:19.558Z,99842.61
2019-03-05T07:14:37.142Z,99848.69
2019-03-05T07:21:51.211Z,99866.17
2019-03-05T07:27:59.794Z,99864.03
2019-03-05T07:34:07.782Z,99880.64
2019-03-05T07:40:33.934Z,99880.66
2019-03-05T07:46:39.932Z,99890.27
2019-03-05T07:52:45.979Z,99909.03
2019-03-05T07:58:51.894Z,99914.72
2019-03-05T08:04:58.778Z,99914.25
2019-03-05T08:11:04.958Z,99929.05
2019-03-05T08:17:10.748Z,99939.09
2019-03-05T08:23:16.579Z,99937.36
2019-03-05T08:29:22.721Z,99946.98
2019-03-05T08:35:28.690Z,99958.30
2019-03-05T08:41:34.802Z,99967.48
2019-03-05T08:47:40.690Z,99967.47
2019-03-05T08:53:49.797Z,99977.94
2019-03-05T08:59:54.115Z,99987.98
2019-03-05T09:06:00.110Z,99984.49
2019-03-05T09:12:06.679Z,99989.67
2019-03-05T09:18:12.473Z,99988.30
2019-03-05T09:24:18.230Z,99988.67
2019-03-05T09:30:23.947Z,99991.69
2019-03-05T09:36:29.760Z,99995.98
2019-03-05T09:42:39.945Z,100000.83
2019-03-05T09:48:43.038Z,100013.49
2019-03-05T09:54:49.002Z,100014.31
2019-03-05T10:00:54.891Z,100018.20
2019-03-05T10:07:00.720Z,100013.32
2019-03-05T10:13:06.719Z,100015.86
2019-03-05T10:19:12.585Z,100020.63
2019-03-05T10:25:20.222Z,100031.05
2019-03-05T10:31:25.963Z,100033.20
2019-03-05T10:37:31.733Z,100029.14
2019-03-05T10:43:37.528Z,100038.30
2019-03-05T10:49:43.289Z,100038.25
2019-03-05T10:55:49.293Z,100055.58
2019-03-05T11:01:55.591Z,100051.45
2019-03-05T11:08:01.453Z,100047.01
2019-03-05T11:14:07.310Z,100038.70
2019-03-05T11:20:13.546Z,100049.63
2019-03-05T11:26:19.287Z,100054.84
2019-03-05T11:32:25.134Z,100043.89
2019-03-05T11:38:32.873Z,100051.54
2019-03-05T11:44:38.613Z,100048.78
2019-03-05T11:50:44.668Z,100051.45
2019-03-05T11:56:50.578Z,100050.43
2019-03-05T12:02:56.512Z,100067.80
2019-03-05T12:09:02.392Z,100069.27
2019-03-05T12:15:12.173Z,100084.77
2019-03-05T12:21:17.938Z,100078.64
2019-03-05T12:27:23.771Z,100081.28
2019-03-05T12:33:29.994Z,100086.53
2019-03-05T12:39:35.806Z,100098.11
2019-03-05T12:45:41.610Z,100097.81
2019-03-05T12:51:47.416Z,100103.02
2019-03-05T12:57:53.446Z,100091.56
2019-03-05T13:03:59.215Z,100094.04
2019-03-05T13:10:05.266Z,100109.77
2019-03-05T13:16:13.777Z,100113.59
2019-03-05T13:22:18.838Z,100105.61
2019-03-05T13:28:24.624Z,100110.63
2019-03-05T13:34:30.660Z,100116.39
2019-03-05T13:40:38.407Z,100101.09
2019-03-05T13:46:45.151Z,100114.52
2019-03-05T13:53:36.397Z,100109.49
2019-03-05T13:59:49.863Z,100127.54
2019-03-05T14:06:48.135Z,100147.34
2019-03-05T14:12:54.136Z,100140.16
2019-03-05T14:18:59.966Z,100163.27
2019-03-05T14:25:07.296Z,100168.72
2019-03-05T14:31:13.082Z,100173.14
2019-03-05T14:37:18.977Z,100163.75
2019-03-05T14:43:24.735Z,100169.17
2019-03-05T14:49:30.443Z,100180.38
2019-03-05T14:55:36.236Z,100178.59
2019-03-05T15:01:42.057Z,100181.60
2019-03-05T15:07:47.773Z,100188.96
2019-03-05T15:13:53.726Z,100199.92
2019-03-05T15:19:59.506Z,100200.28
2019-03-05T15:26:05.390Z,100214.95
2019-03-05T15:32:11.240Z,100205.66
2019-03-05T15:38:17.075Z,100203.30
2019-03-05T15:44:22.814Z,100205.88
2019-03-05T15:50:28.695Z,100205.30
2019-03-05T15:56:34.543Z,100201.38
2019-03-05T16:02:40.639Z,100208.43
2019-03-05T16:08:46.404Z,100219.93
2019-03-05T16:14:52.130Z,100229.12
2019-03-05T16:21:01.893Z,100235.20
2019-03-05T16:27:05.412Z,100225.66
2019-03-05T16:33:36.796Z,100239.06
2019-03-05T16:40:01.133Z,100240.54
2019-03-05T16:46:34.768Z,100238.09
2019-03-05T16:52:59.506Z,100249.63
2019-03-05T16:59:24.951Z,100269.52
2019-03-05T17:05:52.424Z,100262.14
2019-03-05T17:11:58.326Z,100276.33
2019-03-05T17:18:04.107Z,100286.98
2019-03-05T17:24:10.488Z,100294.17
2019-03-05T17:30:17.250Z,100308.31
2019-03-05T17:36:23.225Z,100304.05
2019-03-05T17:42:29.847Z,100313.34
2019-03-05T17:48:35.781Z,100322.66
2019-03-05T17:54:41.563Z,100334.57
2019-03-05T18:00:48.885Z,100346.02
2019-03-05T18:06:54.605Z,100355.77
2019-03-05T18:13:00.350Z,100360.21
2019-03-05T18:19:06.273Z,100362.88
2019-03-05T18:25:12.581Z,100362.03
2019-03-05T18:31:18.299Z,100367.27
2019-03-05T18:37:24.214Z,100385.64
2019-03-05T18:43:29.999Z,100395.73
2019-03-05T18:49:35.727Z,100394.42
2019-03-05T18:55:41.989Z,100393.59
2019-03-05T19:01:47.839Z,100397.98
2019-03-05T19:07:53.723Z,100400.20
2019-03-05T19:13:59.454Z,100411.61
2019-03-05T19:20:06.620Z,100411.61
2019-03-05T19:26:14.734Z,100416.00
2019-03-05T19:32:20.512Z,100425.64
2019-03-05T19:38:26.229Z,100424.79
2019-03-05T19:44:32.174Z,100422.59
2019-03-05T19:50:38.227Z,100435.74
2019-03-05T19:56:44.291Z,100440.95
2019-03-05T20:02:50.022Z,100431.77
2019-03-05T20:08:56.362Z,100440.52
2019-03-05T20:15:02.219Z,100444.02
2019-03-05T20:21:09.931Z,100437.44
2019-03-05T20:27:16.467Z,100433.50
2019-03-05T20:33:22.509Z,100448.78
2019-03-05T20:39:28.423Z,100441.77
2019-03-05T20:45:39.774Z,100443.48
2019-03-05T20:51:45.527Z,100450.02
2019-03-05T20:57:51.504Z,100452.62
2019-03-05T21:03:57.787Z,100453.06
2019-03-05T21:10:03.979Z,100451.72
2019-03-05T21:16:10.035Z,100442.95
2019-03-05T21:22:16.100Z,100443.38
2019-03-05T21:28:21.958Z,100442.95
2019-03-05T21:34:28.116Z,100438.54
2019-03-05T21:40:34.009Z,100444.67
2019-03-05T21:46:40.795Z,100448.56
2019-03-05T21:52:48.566Z,100448.98
2019-03-05T21:58:54.535Z,100455.50
2019-03-05T22:05:01.418Z,100455.05
2019-03-05T22:11:07.934Z,100453.74
2019-03-05T22:17:14.031Z,100455.49
2019-03-05T22:23:20.054Z,100449.81
2019-03-05T22:29:25.822Z,100441.08
2019-03-05T22:35:31.627Z,100438.48
2019-03-05T22:41:38.380Z,100443.78
2019-03-05T22:47:44.350Z,100437.28
2019-03-05T22:53:50.295Z,100437.77
2019-03-05T22:59:56.210Z,100434.31
2019-03-05T23:06:03.811Z,100433.00
2019-03-05T23:12:09.907Z,100416.84
2019-03-05T23:18:15.605Z,100421.22
2019-03-05T23:24:21.966Z,100424.72
2019-03-05T23:30:28.114Z,100413.82
2019-03-05T23:36:34.230Z,100411.16
2019-03-05T23:42:40.306Z,100397.61
2019-03-05T23:48:59.792Z,100390.64
2019-03-05T23:55:06.190Z,100384.96
